Barnaul, Russia
Current Conditions -  °F | °C
As of 12:00 PM on Sunday 23 Nov 2014 (Local Time) from UNBB Reporting Station
Blowing Snow Blowing Snow  
Wind Chill: 10°   Ceiling: 2700
Heat Index: 25°   Visibility: 6mi
Dew Point: 16°   Wind: 20mph
Humidity: 69%   Direction: 220°SW
Pressure: 29.83"   Gusts: 31mph
Location:  53.36°N, 83.75°E
Report Text: UNBB 230500Z 22009G14MPS 9999 DRSN BKN027 M04/M09 Q1010 NOSIGRMK QFE735/0980 24800550
Loading
Personal Weather Stations






























Interactive Weather Map New forecast layout! Learn more

10-Day Weather Forecast

Advertisements
Track Severe Weather on mobile